LOWS Airport Information

Runway Information
Runway 16 Length 9022 ft width 148 ft
Elevation 1411 ft Threshold 656 ft Heading 157
Runway 34 Length 9022 ft Width 148 ft
Elevation 1411 ft Threshold 787 ft Heading 337
Airport Frequencies
Type APP Name APP Frequency 123.725 MHZ
Type ATIS Name ATIS Frequency 125.725 MHZ
Type GND Name GND Frequency 121.75 MHZ
Type TWR Name TWR Frequency 118.1 MHZ
Airport Navaids
Type VOR-DME Name Salzburg Frequency 113800 KHZ
Type NDB Name Salzburg Frequency 382 KHZ
Type NDB Name Salzburg Frequency 410 KHZ
Type NDB Name Salzburg Frequency 356 KHZ
Airport Weather Information & NOTAM
ADDS - METARS form results

(0105 UTC 23 March 2019)
Data provider http://aviationweather.gov/metar/data/
 
METAR text: LOWS 230050Z AUTO 15009KT 9999 NSC 05/00 Q1028
Conditions at: LOWS (SALZBURG AIRPORT, AT) observed 0050 UTC 23 March 2019
Temperature: 5.0°C (41°F)
Dewpoint: 0.0°C (32°F) [RH = 70%]
Pressure (altimeter): 30.35 inches Hg (1028.0 mb)
Winds: from the SSE (150 degrees) at 10 MPH (9 knots; 4.6 m/s)
Visibility: 6 or more miles (10+ km)
Ceiling: at least 12,000 feet AGL
Clouds: sky clear below 12,000 feet AGL
Weather: no significant weather observed at this time

METAR text: LOWS 230020Z AUTO 17005KT 150V210 9999 NSC 05/00 Q1028
Conditions at: LOWS (SALZBURG AIRPORT, AT) observed 0020 UTC 23 March 2019
Temperature: 5.0°C (41°F)
Dewpoint: 0.0°C (32°F) [RH = 70%]
Pressure (altimeter): 30.35 inches Hg (1028.0 mb)
Winds: from the S (170 degrees) at 6 MPH (5 knots; 2.6 m/s)
Visibility: 6 or more miles (10+ km)
Ceiling: at least 12,000 feet AGL
Clouds: sky clear below 12,000 feet AGL
Weather: no significant weather observed at this time

Forecast for: LOWS (SALZBURG AIRPORT, AT)
Text: TAF LOWS 222315Z 2300/2324 16005KT CAVOK TX19/2315Z TN02/2305Z
Forecast period: 0000 to 0800 UTC 23 March 2019
Forecast type: FROM: standard forecast or significant change
Winds: from the SSE (160 degrees) at 6 MPH (5 knots; 2.6 m/s)
Visibility: 6 or more miles 10+ km)
Ceiling: unknown
Clouds: missing
Weather: no significant weather forecast for this period
Text: BECMG 2308/2310 34006KT
Forecast period: 0800 to 1700 UTC 23 March 2019
Forecast type: BECOMING: Conditions expected to become as follows by 1000 UTC 23 March 2019
Winds: from the NNW (340 degrees) at 7 MPH (6 knots; 3.1 m/s)
Visibility: 6 or more miles 10+ km)
Ceiling: unknown
Clouds: missing
Weather: no significant weather forecast for this period
Text: BECMG 2317/2319 15005KT
Forecast period: 1700 UTC 23 March 2019 to 0000 UTC 24 March 2019
Forecast type: BECOMING: Conditions expected to become as follows by 1900 UTC 23 March 2019
Winds: from the SSE (150 degrees) at 6 MPH (5 knots; 2.6 m/s)
Visibility: 6 or more miles 10+ km)
Ceiling: unknown
Clouds: missing
Weather: no significant weather forecast for this period